createdAt,value
2022-11-02T00:00:48.094Z,94.00
2022-11-02T00:03:15.839Z,93.90
2022-11-02T00:05:42.886Z,93.90
2022-11-02T00:08:10.916Z,93.90
2022-11-02T00:10:38.060Z,93.90
2022-11-02T00:13:05.623Z,93.90
2022-11-02T00:15:36.627Z,93.90
2022-11-02T00:18:09.642Z,93.90
2022-11-02T00:20:40.176Z,94.20
2022-11-02T00:23:10.746Z,93.90
2022-11-02T00:25:49.902Z,94.00
2022-11-02T00:28:17.460Z,94.00
2022-11-02T00:30:45.092Z,94.20
2022-11-02T00:33:12.458Z,94.30
2022-11-02T00:35:40.329Z,94.40
2022-11-02T00:38:07.882Z,94.40
2022-11-02T00:40:34.938Z,94.60
2022-11-02T00:43:02.233Z,94.70
2022-11-02T00:45:29.381Z,94.80
2022-11-02T00:47:56.595Z,94.80
2022-11-02T00:50:24.342Z,94.90
2022-11-02T00:52:51.267Z,94.90
2022-11-02T00:55:19.663Z,95.00
2022-11-02T00:57:46.940Z,95.00
2022-11-02T01:00:15.556Z,95.10
2022-11-02T01:02:43.369Z,94.90
2022-11-02T01:05:11.453Z,94.70
2022-11-02T01:07:39.568Z,94.50
2022-11-02T01:10:08.443Z,94.30
2022-11-02T01:12:40.985Z,94.10
2022-11-02T01:15:11.081Z,93.90
2022-11-02T01:17:38.398Z,93.60
2022-11-02T01:20:07.060Z,93.60
2022-11-02T01:22:34.178Z,93.50
2022-11-02T01:25:01.132Z,93.40
2022-11-02T01:27:28.215Z,93.30
2022-11-02T01:29:55.080Z,93.30
2022-11-02T01:32:22.190Z,93.20
2022-11-02T01:34:49.148Z,93.10
2022-11-02T01:37:18.207Z,93.20
2022-11-02T01:39:45.395Z,93.20
2022-11-02T01:42:27.416Z,93.10
2022-11-02T01:44:56.602Z,93.10
2022-11-02T01:47:40.350Z,93.10
2022-11-02T01:50:17.368Z,93.20
2022-11-02T01:52:44.361Z,93.20
2022-11-02T01:55:30.049Z,93.00
2022-11-02T01:58:03.043Z,92.70
2022-11-02T02:00:30.916Z,92.70
2022-11-02T02:03:16.869Z,92.80
2022-11-02T02:06:19.184Z,92.70
2022-11-02T02:08:51.260Z,92.90
2022-11-02T02:11:34.137Z,93.00
2022-11-02T02:14:20.160Z,93.10
2022-11-02T02:17:28.783Z,93.20
2022-11-02T02:20:46.465Z,93.20
2022-11-02T02:23:27.861Z,93.20
2022-11-02T02:26:43.676Z,93.20
2022-11-02T02:29:28.444Z,93.30
2022-11-02T02:32:30.315Z,93.40
2022-11-02T02:35:18.284Z,93.50
2022-11-02T02:38:06.477Z,93.70
2022-11-02T02:41:03.581Z,93.70
2022-11-02T02:43:41.873Z,93.80
2022-11-02T02:46:20.803Z,93.70
2022-11-02T02:48:50.304Z,93.70
2022-11-02T02:51:25.852Z,93.90
2022-11-02T02:54:13.670Z,94.00
2022-11-02T02:56:49.217Z,94.10
2022-11-02T02:59:27.573Z,94.20
2022-11-02T03:01:57.163Z,94.30
2022-11-02T03:04:25.570Z,94.30
2022-11-02T03:06:58.417Z,94.40
2022-11-02T03:09:35.868Z,94.60
2022-11-02T03:13:00.006Z,94.40
2022-11-02T03:15:44.827Z,94.50
2022-11-02T03:18:35.462Z,94.50
2022-11-02T03:21:37.806Z,94.50
2022-11-02T03:24:45.461Z,94.40
2022-11-02T03:27:25.382Z,94.00
2022-11-02T03:30:18.468Z,93.90
2022-11-02T03:33:14.622Z,93.70
2022-11-02T03:36:05.608Z,93.80
2022-11-02T03:38:52.339Z,93.90
2022-11-02T03:41:23.101Z,93.90
2022-11-02T03:43:59.415Z,94.10
2022-11-02T03:46:31.947Z,94.10
2022-11-02T03:49:07.678Z,93.80
2022-11-02T03:51:42.448Z,93.60
2022-11-02T03:54:38.896Z,93.70
2022-11-02T03:57:12.202Z,93.60
2022-11-02T03:59:40.000Z,93.80
2022-11-02T04:02:11.479Z,93.90
2022-11-02T04:04:52.738Z,93.90
2022-11-02T04:07:55.461Z,93.80
2022-11-02T04:10:26.181Z,93.90
2022-11-02T04:13:11.736Z,93.80
2022-11-02T04:15:38.919Z,93.80
2022-11-02T04:18:24.672Z,93.40
2022-11-02T04:20:52.094Z,93.30
2022-11-02T04:23:38.194Z,93.20
2022-11-02T04:26:06.198Z,93.20
2022-11-02T04:28:40.729Z,93.20
2022-11-02T04:31:08.114Z,93.10
2022-11-02T04:33:38.682Z,93.30
2022-11-02T04:36:16.868Z,93.30
2022-11-02T04:38:46.771Z,93.30
2022-11-02T04:41:40.554Z,93.60
2022-11-02T04:44:24.842Z,93.70
2022-11-02T04:47:04.735Z,93.70
2022-11-02T04:49:34.208Z,93.80
2022-11-02T04:52:01.189Z,93.80
2022-11-02T04:54:29.952Z,93.90
2022-11-02T04:57:00.936Z,94.00
2022-11-02T04:59:29.241Z,94.00
2022-11-02T05:01:56.303Z,94.00
2022-11-02T05:04:23.460Z,94.00
2022-11-02T05:06:50.353Z,94.10
2022-11-02T05:09:18.749Z,94.20
2022-11-02T05:11:48.427Z,94.10
2022-11-02T05:14:16.432Z,94.10
2022-11-02T05:16:43.300Z,94.10
2022-11-02T05:19:11.446Z,94.00
2022-11-02T05:21:39.879Z,94.10
2022-11-02T05:24:07.576Z,93.90
2022-11-02T05:26:35.260Z,94.00
2022-11-02T05:29:02.524Z,94.00
2022-11-02T05:31:30.223Z,94.10
2022-11-02T05:33:58.266Z,94.00
2022-11-02T05:36:25.576Z,94.00
2022-11-02T05:38:55.054Z,94.10
2022-11-02T05:41:23.493Z,94.20
2022-11-02T05:43:53.087Z,94.10
2022-11-02T05:46:21.814Z,94.10
2022-11-02T05:48:48.668Z,94.20
2022-11-02T05:51:15.601Z,94.20
2022-11-02T05:53:42.572Z,94.30
2022-11-02T05:56:11.301Z,94.40
2022-11-02T05:58:38.209Z,94.50
2022-11-02T06:01:07.719Z,94.30
2022-11-02T06:03:36.063Z,94.30
2022-11-02T06:06:07.041Z,94.20
2022-11-02T06:08:37.115Z,94.20
2022-11-02T06:11:09.491Z,94.30
2022-11-02T06:13:37.235Z,94.30
2022-11-02T06:16:09.211Z,94.20
2022-11-02T06:18:37.114Z,94.40
2022-11-02T06:21:04.720Z,94.60
2022-11-02T06:23:31.807Z,94.40
2022-11-02T06:26:00.611Z,94.30
2022-11-02T06:28:28.717Z,94.10
2022-11-02T06:30:57.002Z,94.20
2022-11-02T06:33:24.403Z,94.10
2022-11-02T06:35:54.448Z,93.90
2022-11-02T06:38:22.217Z,93.80
2022-11-02T06:41:00.780Z,94.00
2022-11-02T06:43:27.941Z,93.70
2022-11-02T06:45:58.561Z,93.70
2022-11-02T06:48:34.644Z,93.60
2022-11-02T06:51:04.228Z,93.40
2022-11-02T06:53:32.990Z,93.30
2022-11-02T06:56:00.667Z,93.20
2022-11-02T06:58:29.591Z,93.40
2022-11-02T07:01:07.616Z,93.40
2022-11-02T07:03:37.280Z,93.20
2022-11-02T07:08:45.827Z,93.30
2022-11-02T07:11:17.938Z,93.30
2022-11-02T07:13:46.047Z,93.10
2022-11-02T07:16:13.988Z,93.00
2022-11-02T07:18:42.809Z,92.80
2022-11-02T07:21:11.853Z,92.90
2022-11-02T07:23:38.986Z,93.00
2022-11-02T07:26:06.868Z,93.00
2022-11-02T07:28:36.766Z,93.00
2022-11-02T07:31:04.908Z,93.10
2022-11-02T07:33:32.766Z,92.60
2022-11-02T07:36:07.702Z,92.30
2022-11-02T07:38:41.479Z,92.20
2022-11-02T07:41:10.740Z,92.20
2022-11-02T07:43:41.334Z,92.00
2022-11-02T07:46:26.290Z,92.10
2022-11-02T07:48:54.963Z,92.20
2022-11-02T07:51:26.176Z,92.30
2022-11-02T07:53:54.580Z,92.50
2022-11-02T07:56:21.906Z,92.60
2022-11-02T07:58:50.826Z,92.80
2022-11-02T08:01:18.199Z,92.60
2022-11-02T08:03:45.242Z,91.90
2022-11-02T08:06:12.671Z,91.70
2022-11-02T08:08:39.932Z,91.10
2022-11-02T08:11:09.480Z,90.70
2022-11-02T08:13:37.792Z,90.30
2022-11-02T08:16:07.511Z,89.80
2022-11-02T08:18:34.499Z,89.60
2022-11-02T08:21:01.658Z,88.70
2022-11-02T08:23:29.995Z,88.00
2022-11-02T08:26:00.253Z,87.70
2022-11-02T08:28:36.837Z,86.50
2022-11-02T08:31:04.281Z,86.40
2022-11-02T08:33:31.341Z,87.10
2022-11-02T08:36:05.137Z,87.30
2022-11-02T08:38:32.491Z,86.90
2022-11-02T08:40:59.768Z,87.50
2022-11-02T08:43:26.882Z,88.60
2022-11-02T08:46:16.513Z,88.20
2022-11-02T08:48:44.891Z,87.90
2022-11-02T08:51:12.172Z,87.50
2022-11-02T08:53:39.181Z,86.40
2022-11-02T08:56:06.554Z,86.70
2022-11-02T08:58:33.618Z,87.70
2022-11-02T09:01:00.561Z,87.80
2022-11-02T09:03:28.269Z,88.40
2022-11-02T09:06:01.697Z,87.50
2022-11-02T09:08:30.213Z,86.30
2022-11-02T09:11:03.725Z,87.20
2022-11-02T09:13:31.203Z,88.10
2022-11-02T09:16:00.307Z,87.40
2022-11-02T09:18:28.031Z,88.10
2022-11-02T09:20:56.436Z,89.20
2022-11-02T09:23:23.912Z,87.50
2022-11-02T09:25:51.103Z,87.30
2022-11-02T09:28:18.544Z,86.20
2022-11-02T09:30:46.730Z,86.40
2022-11-02T09:33:14.928Z,84.10
2022-11-02T09:35:45.566Z,84.10
2022-11-02T09:38:13.643Z,85.20
2022-11-02T09:41:07.283Z,83.50
2022-11-02T09:44:12.438Z,83.40
2022-11-02T09:46:44.789Z,82.90
2022-11-02T09:49:25.645Z,83.40
2022-11-02T09:57:49.875Z,86.20
2022-11-02T10:00:18.518Z,85.10
2022-11-02T10:03:05.015Z,83.90
2022-11-02T10:06:03.469Z,82.90
2022-11-02T10:08:42.727Z,80.90
2022-11-02T10:12:08.762Z,81.10
2022-11-02T10:14:50.205Z,76.60
2022-11-02T10:17:28.725Z,76.40
2022-11-02T10:20:02.612Z,75.60
2022-11-02T10:22:39.828Z,73.50
2022-11-02T10:25:08.366Z,73.90
2022-11-02T10:27:39.266Z,72.70
2022-11-02T10:30:20.916Z,72.70
2022-11-02T10:32:53.297Z,71.10
2022-11-02T10:39:11.600Z,66.80
2022-11-02T10:42:12.372Z,67.70
2022-11-02T10:45:24.032Z,69.50
2022-11-02T10:48:16.469Z,69.00
2022-11-02T10:51:08.734Z,70.40
2022-11-02T10:53:41.811Z,72.20
2022-11-02T10:56:33.013Z,72.20
2022-11-02T10:59:00.275Z,72.40
2022-11-02T11:01:30.002Z,71.80
2022-11-02T11:04:02.207Z,69.70
2022-11-02T11:06:31.843Z,70.40
2022-11-02T11:09:19.822Z,67.10
2022-11-02T11:12:06.049Z,66.40
2022-11-02T11:20:39.818Z,61.30
2022-11-02T11:23:23.129Z,63.30
2022-11-02T11:26:11.887Z,63.90
2022-11-02T11:28:54.103Z,63.80
2022-11-02T11:31:21.766Z,65.30
2022-11-02T11:33:58.445Z,64.20
2022-11-02T11:36:33.132Z,64.80
2022-11-02T11:39:16.805Z,66.30
2022-11-02T11:41:43.818Z,65.70
2022-11-02T11:44:15.382Z,66.40
2022-11-02T11:46:59.240Z,64.60
2022-11-02T11:50:10.362Z,66.00
2022-11-02T11:52:31.913Z,64.50
2022-11-02T11:55:28.124Z,63.60
2022-11-02T11:58:12.659Z,61.40
2022-11-02T12:00:39.551Z,61.90
2022-11-02T12:03:12.566Z,61.60
2022-11-02T12:06:07.877Z,60.80
2022-11-02T12:09:27.557Z,60.80
2022-11-02T12:12:17.214Z,61.50
2022-11-02T12:14:53.065Z,61.10
2022-11-02T12:18:09.752Z,60.10
2022-11-02T12:21:14.011Z,58.30
2022-11-02T12:23:43.963Z,57.90
2022-11-02T12:26:35.536Z,58.50
2022-11-02T12:29:41.907Z,58.90
2022-11-02T12:32:35.053Z,59.20
2022-11-02T12:35:28.831Z,58.30
2022-11-02T12:38:31.475Z,59.40
2022-11-02T12:41:12.479Z,60.30
2022-11-02T12:43:59.732Z,60.00
2022-11-02T12:46:53.621Z,59.90
2022-11-02T12:50:04.819Z,60.00
2022-11-02T12:53:05.565Z,60.90
2022-11-02T12:55:41.378Z,62.00
2022-11-02T12:58:19.445Z,63.40
2022-11-02T13:00:55.337Z,62.50
2022-11-02T13:04:09.502Z,64.20
2022-11-02T13:06:43.404Z,64.70
2022-11-02T13:09:29.753Z,64.20
2022-11-02T13:12:09.663Z,63.10
2022-11-02T13:14:43.923Z,63.10
2022-11-02T13:17:39.994Z,63.10
2022-11-02T13:20:24.575Z,64.70
2022-11-02T13:23:19.672Z,65.00
2022-11-02T13:25:56.788Z,63.20
2022-11-02T13:28:45.478Z,64.00
2022-11-02T13:31:21.065Z,63.40
2022-11-02T13:33:53.845Z,62.20
2022-11-02T13:36:20.953Z,62.10
2022-11-02T13:39:03.194Z,62.60
2022-11-02T13:41:47.675Z,62.70
2022-11-02T13:44:48.355Z,63.40
2022-11-02T13:47:52.354Z,65.00
2022-11-02T13:50:24.380Z,64.10
2022-11-02T13:53:18.344Z,63.70
2022-11-02T13:55:59.820Z,63.60
2022-11-02T13:58:34.280Z,65.30
2022-11-02T14:01:09.790Z,65.70
2022-11-02T14:03:49.851Z,66.00
2022-11-02T14:06:20.735Z,65.40
2022-11-02T14:08:59.928Z,64.40
2022-11-02T14:11:42.079Z,64.00
2022-11-02T14:14:11.965Z,63.70
2022-11-02T14:16:50.865Z,65.20
2022-11-02T14:19:19.323Z,66.50
2022-11-02T14:21:58.952Z,66.10
2022-11-02T14:24:35.005Z,65.30
2022-11-02T14:27:07.168Z,65.00
2022-11-02T14:29:46.170Z,66.80
2022-11-02T14:32:22.531Z,68.30
2022-11-02T14:34:58.364Z,69.80
2022-11-02T14:37:56.353Z,71.20
2022-11-02T14:41:14.658Z,72.60
2022-11-02T14:43:44.353Z,73.70
2022-11-02T14:46:56.886Z,72.10
2022-11-02T14:49:34.443Z,70.20
2022-11-02T14:52:04.996Z,70.00
2022-11-02T14:54:39.534Z,69.20
2022-11-02T14:57:40.598Z,67.90
2022-11-02T15:00:28.612Z,69.80
2022-11-02T15:02:57.130Z,70.50
2022-11-02T15:05:36.875Z,70.00
2022-11-02T15:08:33.704Z,70.30
2022-11-02T15:11:42.535Z,72.00
2022-11-02T15:14:51.585Z,72.50
2022-11-02T15:17:18.454Z,73.80
2022-11-02T15:19:52.444Z,74.80
2022-11-02T15:22:31.929Z,75.70
2022-11-02T15:25:08.455Z,77.10
2022-11-02T15:27:38.206Z,77.90
2022-11-02T15:30:22.534Z,78.70
2022-11-02T15:33:01.731Z,78.80
2022-11-02T15:35:37.632Z,79.30
2022-11-02T15:38:30.370Z,79.60
2022-11-02T15:41:13.601Z,79.60
2022-11-02T15:44:18.666Z,80.10
2022-11-02T15:47:04.138Z,80.20
2022-11-02T15:49:58.943Z,80.70
2022-11-02T15:53:21.505Z,81.00
2022-11-02T15:56:21.817Z,81.80
2022-11-02T15:59:29.581Z,82.10
2022-11-02T16:02:20.492Z,82.50
2022-11-02T16:04:51.921Z,83.00
2022-11-02T16:07:20.189Z,83.40
2022-11-02T16:09:48.019Z,83.70
2022-11-02T16:12:21.286Z,83.90
2022-11-02T16:15:13.890Z,84.10
2022-11-02T16:17:42.495Z,84.30
2022-11-02T16:20:26.843Z,84.50
2022-11-02T16:23:03.114Z,84.70
2022-11-02T16:25:45.606Z,84.90
2022-11-02T17:15:15.049Z,84.90
2022-11-02T17:17:42.326Z,84.70
2022-11-02T17:20:15.182Z,84.40
2022-11-02T17:23:04.570Z,84.40
2022-11-02T17:25:40.145Z,84.60
2022-11-02T17:28:46.799Z,85.00
2022-11-02T17:31:30.243Z,85.30
2022-11-02T17:34:15.420Z,85.50
2022-11-02T17:36:49.163Z,85.90
2022-11-02T17:39:19.770Z,86.10
2022-11-02T17:42:16.764Z,86.40
2022-11-02T17:44:45.704Z,86.70
2022-11-02T17:47:17.761Z,87.20
2022-11-02T17:49:44.687Z,87.60
2022-11-02T17:52:16.886Z,87.90
2022-11-02T17:54:44.034Z,88.20
2022-11-02T17:57:15.296Z,88.50
2022-11-02T17:59:42.282Z,88.80
2022-11-02T18:02:16.365Z,89.10
2022-11-02T18:07:15.710Z,89.30
2022-11-02T18:09:42.734Z,89.80
2022-11-02T18:12:13.793Z,89.10
2022-11-02T18:14:43.458Z,89.00
2022-11-02T18:17:19.361Z,88.90
2022-11-02T18:19:46.250Z,88.70
2022-11-02T18:22:15.141Z,88.40
2022-11-02T18:24:42.532Z,88.10
2022-11-02T18:27:09.934Z,88.10
2022-11-02T18:29:37.443Z,87.90
2022-11-02T18:32:04.477Z,87.60
2022-11-02T18:34:31.520Z,87.30
2022-11-02T18:36:58.617Z,87.10
2022-11-02T18:39:25.801Z,86.90
2022-11-02T18:41:53.844Z,86.60
2022-11-02T18:44:20.792Z,86.40
2022-11-02T18:46:48.280Z,86.20
2022-11-02T18:49:15.482Z,86.10
2022-11-02T18:51:43.583Z,86.00
2022-11-02T18:54:10.608Z,86.50
2022-11-02T18:56:37.832Z,85.90
2022-11-02T18:59:05.024Z,85.90
2022-11-02T19:01:32.100Z,85.90
2022-11-02T19:04:00.836Z,85.80
2022-11-02T19:06:50.507Z,85.70
2022-11-02T19:09:20.724Z,85.70
2022-11-02T19:12:00.207Z,85.60
2022-11-02T19:14:34.612Z,85.70
2022-11-02T19:17:06.327Z,85.80
2022-11-02T19:19:34.141Z,85.90
2022-11-02T19:22:01.984Z,85.90
2022-11-02T19:24:29.854Z,86.00
2022-11-02T19:26:57.235Z,86.10
2022-11-02T19:29:24.567Z,86.30
2022-11-02T19:31:51.539Z,86.40
2022-11-02T19:34:18.473Z,86.50
2022-11-02T19:36:45.530Z,86.50
2022-11-02T19:39:12.885Z,86.70
2022-11-02T19:41:39.899Z,86.70
2022-11-02T19:44:07.325Z,86.90
2022-11-02T19:46:37.190Z,87.00
2022-11-02T19:49:04.171Z,87.20
2022-11-02T19:51:31.996Z,87.30
2022-11-02T19:54:01.880Z,87.50
2022-11-02T19:56:33.191Z,87.90
2022-11-02T19:59:01.226Z,87.90
2022-11-02T20:01:40.632Z,88.20
2022-11-02T20:04:09.211Z,88.20
2022-11-02T20:06:40.404Z,88.30
2022-11-02T20:09:16.181Z,88.40
2022-11-02T20:11:47.059Z,88.50
2022-11-02T20:14:16.607Z,88.70
2022-11-02T20:16:47.303Z,88.80
2022-11-02T20:19:17.397Z,89.00
2022-11-02T20:21:44.813Z,89.10
2022-11-02T20:24:12.176Z,89.20
2022-11-02T20:26:43.299Z,89.20
2022-11-02T20:29:13.673Z,89.30
2022-11-02T20:31:44.488Z,89.30
2022-11-02T20:34:12.830Z,89.40
2022-11-02T20:36:39.908Z,89.60
2022-11-02T20:39:07.551Z,89.60
2022-11-02T20:41:34.544Z,89.70
2022-11-02T20:44:01.688Z,89.80
2022-11-02T20:46:37.578Z,89.90
2022-11-02T20:49:20.482Z,90.00
2022-11-02T20:51:53.223Z,90.10
2022-11-02T20:54:22.162Z,90.20
2022-11-02T20:56:50.547Z,90.30
2022-11-02T20:59:17.762Z,90.40
2022-11-02T21:01:45.314Z,90.50
2022-11-02T21:04:18.640Z,90.50
2022-11-02T21:06:48.139Z,90.70
2022-11-02T21:09:15.093Z,91.00
2022-11-02T21:12:00.521Z,90.80
2022-11-02T21:14:27.354Z,90.90
2022-11-02T21:16:54.243Z,91.00
2022-11-02T21:19:21.223Z,91.00
2022-11-02T21:21:48.075Z,91.10
2022-11-02T21:24:14.905Z,91.20
2022-11-02T21:26:41.842Z,91.30
2022-11-02T21:29:09.788Z,91.30
2022-11-02T21:31:36.842Z,91.40
2022-11-02T21:34:04.077Z,91.50
2022-11-02T21:36:31.116Z,91.60
2022-11-02T21:38:58.870Z,91.70
2022-11-02T21:41:28.659Z,91.80
2022-11-02T21:43:56.162Z,91.90
2022-11-02T21:46:26.906Z,92.00
2022-11-02T21:48:55.743Z,92.00
2022-11-02T21:51:23.230Z,92.00
2022-11-02T21:53:50.851Z,92.20
2022-11-02T21:56:21.851Z,92.10
2022-11-02T21:58:49.489Z,92.20
2022-11-02T22:01:44.485Z,92.20
2022-11-02T22:04:25.215Z,92.20
2022-11-02T22:06:52.720Z,92.30
2022-11-02T22:09:19.780Z,92.30
2022-11-02T22:11:47.080Z,92.30
2022-11-02T22:14:14.333Z,92.30
2022-11-02T22:16:43.763Z,92.30
2022-11-02T22:19:15.481Z,92.30
2022-11-02T22:21:44.914Z,92.30
2022-11-02T22:24:12.517Z,92.20
2022-11-02T22:26:40.976Z,92.20
2022-11-02T22:29:08.995Z,92.20
2022-11-02T22:31:40.348Z,92.10
2022-11-02T22:34:10.521Z,92.10
2022-11-02T22:36:41.833Z,92.10
2022-11-02T22:39:14.485Z,92.10
2022-11-02T22:41:47.596Z,92.10
2022-11-02T22:44:18.652Z,92.10
2022-11-02T22:46:50.092Z,92.10
2022-11-02T22:49:19.366Z,92.10
2022-11-02T22:51:49.129Z,92.10
2022-11-02T22:54:19.115Z,92.20
2022-11-02T22:56:48.401Z,92.20
2022-11-02T22:59:16.068Z,92.20
2022-11-02T23:01:43.411Z,92.10
2022-11-02T23:04:11.752Z,92.10
2022-11-02T23:06:39.585Z,92.10
2022-11-02T23:09:07.163Z,92.00
2022-11-02T23:11:36.958Z,92.00
2022-11-02T23:14:15.109Z,92.00
2022-11-02T23:16:47.689Z,92.00
2022-11-02T23:19:31.049Z,92.00
2022-11-02T23:22:30.898Z,92.00
2022-11-02T23:25:12.914Z,91.90
2022-11-02T23:28:15.125Z,91.90
2022-11-02T23:31:02.259Z,91.90
2022-11-02T23:33:36.198Z,91.90
2022-11-02T23:36:13.652Z,91.80
2022-11-02T23:39:04.155Z,91.80
2022-11-02T23:41:33.831Z,91.70
2022-11-02T23:44:18.855Z,91.70
2022-11-02T23:46:50.992Z,91.70
2022-11-02T23:49:18.945Z,91.70
2022-11-02T23:52:04.327Z,91.60
2022-11-02T23:54:49.535Z,91.60
2022-11-02T23:57:16.767Z,91.90
2022-11-02T23:59:43.740Z,91.60
